Time;durP1;ratioP1;P1;durP2;ratioP2;P2;SDS_P1;SDS_P2;PMS_P1;PMS_P2;Temp;Humidity;BMP_temperature;BMP_pressure;BME280_temperature;BME280_humidity;BME280_pressure;Samples;Min_cycle;Max_cycle;Signal;HPM_P1;HPM_P2
2021/05/10 00:00:49;;;;;;;;;;;17.10;99.90;;;;;;10359643;28;19926;-85
2021/05/10 00:05:51;;;;;;;;;;;16.90;99.90;;;;;;10376446;28;19925;-85
2021/05/10 00:10:53;;;;;;;;;;;17.00;99.90;;;;;;10356342;28;20270;-85
2021/05/10 00:15:54;;;;;;;;;;;16.90;99.90;;;;;;10319066;28;19925;-85
2021/05/10 00:20:56;;;;;;;;;;;17.00;99.90;;;;;;10357210;28;20288;-84
2021/05/10 00:25:57;;;;;;;;;;;17.00;99.90;;;;;;10336547;28;20009;-85
2021/05/10 00:30:58;;;;;;;;;;;16.90;99.90;;;;;;10335618;28;19925;-85
2021/05/10 00:35:59;;;;;;;;;;;16.80;99.90;;;;;;10319670;28;19944;-85
2021/05/10 00:41:01;;;;;;;;;;;16.70;99.90;;;;;;10334581;28;19966;-85
2021/05/10 00:46:02;;;;;;;;;;;16.60;99.90;;;;;;10317884;28;19932;-85
2021/05/10 00:51:04;;;;;;;;;;;16.50;99.90;;;;;;10347241;28;19925;-85
2021/05/10 00:56:05;;;;;;;;;;;16.50;99.90;;;;;;10375562;28;19925;-85
2021/05/10 01:01:06;;;;;;;;;;;16.40;99.90;;;;;;10358156;28;19932;-85
2021/05/10 01:06:08;;;;;;;;;;;16.40;99.90;;;;;;10381331;28;20395;-85
2021/05/10 01:11:09;;;;;;;;;;;16.30;99.90;;;;;;10414777;28;20287;-85
2021/05/10 01:16:11;;;;;;;;;;;16.30;99.90;;;;;;10394159;28;19929;-85
2021/05/10 01:21:13;;;;;;;;;;;16.30;99.90;;;;;;10413959;28;20399;-85
2021/05/10 01:26:14;;;;;;;;;;;16.20;99.90;;;;;;10405160;28;19925;-85
2021/05/10 01:31:16;;;;;;;;;;;16.10;99.90;;;;;;10379305;28;19929;-85
2021/05/10 01:36:17;;;;;;;;;;;16.20;99.90;;;;;;10396137;28;19992;-85
2021/05/10 01:41:18;;;;;;;;;;;16.00;99.90;;;;;;10380436;28;19925;-85
2021/05/10 01:46:20;;;;;;;;;;;16.00;99.90;;;;;;10413847;28;19964;-85
2021/05/10 01:51:25;;;;;;;;;;;15.90;99.90;;;;;;10386047;28;19929;-85
2021/05/10 01:56:26;;;;;;;;;;;15.80;99.90;;;;;;10379563;28;19947;-85
2021/05/10 02:01:28;;;;;;;;;;;15.80;99.90;;;;;;10395851;28;19925;-85
2021/05/10 02:06:29;;;;;;;;;;;15.80;99.90;;;;;;10399183;28;19975;-85
2021/05/10 02:11:31;;;;;;;;;;;15.80;99.90;;;;;;10403305;28;19983;-85
2021/05/10 02:16:32;;;;;;;;;;;15.80;99.90;;;;;;10391501;28;19925;-85
2021/05/10 02:21:34;;;;;;;;;;;15.70;99.90;;;;;;10379197;28;19935;-85
2021/05/10 02:26:35;;;;;;;;;;;15.70;99.90;;;;;;10379438;28;19925;-85
2021/05/10 02:31:37;;;;;;;;;;;15.90;99.90;;;;;;10360644;28;20395;-85
2021/05/10 02:36:38;;;;;;;;;;;15.70;99.90;;;;;;10378220;28;19934;-85
2021/05/10 02:41:39;;;;;;;;;;;15.70;99.90;;;;;;10378491;28;19925;-85
2021/05/10 02:46:41;;;;;;;;;;;15.70;99.90;;;;;;10344663;28;20427;-85
2021/05/10 02:51:43;;;;;;;;;;;15.70;99.90;;;;;;10377453;28;20385;-85
2021/05/10 02:56:45;;;;;;;;;;;15.80;99.90;;;;;;10344454;28;20002;-85
2021/05/10 03:01:46;;;;;;;;;;;15.70;99.90;;;;;;10359585;28;20253;-85
2021/05/10 03:06:47;;;;;;;;;;;15.70;99.90;;;;;;10378224;28;20007;-85
2021/05/10 03:11:49;;;;;;;;;;;15.70;99.90;;;;;;10378591;28;19925;-85
2021/05/10 03:16:51;;;;;;;;;;;15.80;99.90;;;;;;10411663;28;19929;-84
2021/05/10 03:21:52;;;;;;;;;;;15.70;99.90;;;;;;10419070;28;20415;-84
2021/05/10 03:26:53;;;;;;;;;;;16.10;99.90;;;;;;10418751;28;19925;-84
2021/05/10 03:31:55;;;;;;;;;;;16.30;99.90;;;;;;10401621;28;19925;-85
2021/05/10 03:36:56;;;;;;;;;;;16.90;99.90;;;;;;10418894;28;20016;-85
2021/05/10 03:41:57;;;;;;;;;;;16.50;99.90;;;;;;10400243;28;19925;-85
2021/05/10 03:46:59;;;;;;;;;;;17.20;99.90;;;;;;10417946;28;19932;-85
2021/05/10 03:52:00;;;;;;;;;;;17.00;99.90;;;;;;10400452;28;19926;-85
2021/05/10 03:57:01;;;;;;;;;;;17.60;99.90;;;;;;10384565;28;19929;-85
2021/05/10 04:02:03;;;;;;;;;;;18.00;99.90;;;;;;10384510;28;19925;-85
2021/05/10 04:17:29;;;;;;;;;;;17.90;99.90;;;;;;10402125;28;19929;-85
2021/05/10 04:22:31;;;;;;;;;;;18.30;99.90;;;;;;10399952;28;20086;-85
2021/05/10 04:27:33;;;;;;;;;;;19.00;98.50;;;;;;10416796;28;20375;-85
2021/05/10 04:32:34;;;;;;;;;;;18.40;99.70;;;;;;10398844;28;20407;-85
2021/05/10 04:37:37;;;;;;;;;;;18.80;97.80;;;;;;10399705;28;19929;-85
2021/05/10 04:42:39;;;;;;;;;;;19.00;97.30;;;;;;10415438;28;19931;-85
2021/05/10 04:47:41;;;;;;;;;;;19.10;96.50;;;;;;10381823;28;20308;-85
2021/05/10 04:52:42;;;;;;;;;;;19.50;95.70;;;;;;10398209;28;20284;-85
2021/05/10 04:57:44;;;;;;;;;;;18.50;99.90;;;;;;10413888;28;19925;-85
2021/05/10 05:02:46;;;;;;;;;;;19.10;97.30;;;;;;10398743;28;20383;-86
2021/05/10 05:07:47;;;;;;;;;;;19.00;97.50;;;;;;10416232;28;19925;-84
2021/05/10 05:12:50;;;;;;;;;;;19.10;97.60;;;;;;10394037;28;19926;-85
2021/05/10 05:17:51;;;;;;;;;;;19.10;98.60;;;;;;10378889;28;19929;-86
2021/05/10 05:22:53;;;;;;;;;;;18.90;99.10;;;;;;10416166;28;20038;-85
2021/05/10 05:27:54;;;;;;;;;;;18.90;99.30;;;;;;10397644;28;20005;-85
2021/05/10 05:32:55;;;;;;;;;;;18.80;99.90;;;;;;10397456;28;20288;-85
2021/05/10 05:37:57;;;;;;;;;;;18.50;99.90;;;;;;10415629;28;20292;-85
2021/05/10 05:42:58;;;;;;;;;;;18.50;99.90;;;;;;10422537;28;19925;-86
2021/05/10 05:47:59;;;;;;;;;;;18.30;99.90;;;;;;10373157;28;19929;-86
2021/05/10 05:53:01;;;;;;;;;;;18.20;99.90;;;;;;10428404;23;20016;-85
2021/05/10 05:58:02;;;;;;;;;;;18.20;99.90;;;;;;10404210;28;20299;-85
2021/05/10 06:03:04;;;;;;;;;;;18.20;99.90;;;;;;10422223;28;19959;-85
2021/05/10 06:08:05;;;;;;;;;;;18.00;99.90;;;;;;10405033;28;19940;-85
2021/05/10 06:13:07;;;;;;;;;;;18.00;99.90;;;;;;10404157;28;19947;-85
2021/05/10 06:18:09;;;;;;;;;;;17.80;99.90;;;;;;10422089;28;19925;-86
2021/05/10 06:23:10;;;;;;;;;;;18.40;99.90;;;;;;10422275;28;19925;-86
2021/05/10 06:28:11;;;;;;;;;;;18.40;99.90;;;;;;10420107;28;19925;-85
2021/05/10 06:33:12;;;;;;;;;;;18.20;99.90;;;;;;10421511;28;19929;-85
2021/05/10 06:38:14;;;;;;;;;;;18.40;99.90;;;;;;10421639;28;19925;-86
2021/05/10 06:43:15;;;;;;;;;;;19.50;99.90;;;;;;10420173;28;19956;-86
2021/05/10 06:48:28;;;;;;;;;;;19.70;99.90;;;;;;10402925;28;20376;-88
2021/05/10 06:53:29;;;;;;;;;;;20.00;99.90;;;;;;10420128;28;19925;-86
2021/05/10 06:58:31;;;;;;;;;;;18.80;99.90;;;;;;10421125;28;19932;-86
2021/05/10 07:03:32;;;;;;;;;;;18.80;99.90;;;;;;10367775;28;19932;-88
2021/05/10 07:08:33;;;;;;;;;;;18.50;99.90;;;;;;10381647;28;19932;-88
2021/05/10 07:13:34;;;;;;;;;;;18.60;99.90;;;;;;10368066;28;20376;-87
2021/05/10 07:18:36;;;;;;;;;;;18.60;99.90;;;;;;10420117;28;19925;-88
2021/05/10 07:23:37;;;;;;;;;;;19.00;99.90;;;;;;10419143;28;20360;-88
2021/05/10 07:28:39;;;;;;;;;;;19.10;99.90;;;;;;10392233;28;20027;-89
2021/05/10 07:33:42;;;;;;;;;;;20.20;99.90;;;;;;10377871;28;19926;-88
2021/05/10 07:38:43;;;;;;;;;;;20.30;99.70;;;;;;10367576;28;19931;-89
2021/05/10 07:43:45;;;;;;;;;;;20.20;99.90;;;;;;10401874;28;19925;-88
2021/05/10 07:48:46;;;;;;;;;;;20.60;99.40;;;;;;10418063;28;20295;-87
2021/05/10 07:53:49;;;;;;;;;;;20.10;99.70;;;;;;10364476;28;19926;-87
2021/05/10 07:58:52;;;;;;;;;;;19.40;99.90;;;;;;10360107;28;19926;-85
2021/05/10 08:03:53;;;;;;;;;;;19.00;99.90;;;;;;10358858;28;19929;-85
2021/05/10 08:08:54;;;;;;;;;;;18.60;99.90;;;;;;10343067;28;19926;-85
2021/05/10 08:13:56;;;;;;;;;;;18.40;99.90;;;;;;10387803;28;19948;-85
2021/05/10 08:18:57;;;;;;;;;;;18.40;99.90;;;;;;10400562;28;19932;-85
2021/05/10 08:23:58;;;;;;;;;;;18.30;99.90;;;;;;10383170;28;19931;-85
2021/05/10 08:29:01;;;;;;;;;;;18.40;99.90;;;;;;10413731;28;19940;-85
2021/05/10 08:34:02;;;;;;;;;;;18.60;99.90;;;;;;10358726;28;19929;-86
2021/05/10 08:39:06;;;;;;;;;;;19.00;99.90;;;;;;10342635;28;19933;-85
2021/05/10 08:44:08;;;;;;;;;;;18.40;99.90;;;;;;10357872;28;20280;-87
2021/05/10 08:49:10;;;;;;;;;;;18.40;99.90;;;;;;10379084;28;19933;-87
2021/05/10 08:54:25;;;;;;;;;;;18.10;99.90;;;;;;10398327;28;19972;-87
2021/05/10 08:59:27;;;;;;;;;;;17.80;99.90;;;;;;10416079;28;19925;-87
2021/05/10 09:04:31;;;;;;;;;;;17.60;99.90;;;;;;10415682;28;20299;-87
2021/05/10 09:09:48;;;;;;;;;;;17.40;99.90;;;;;;10416167;28;19929;-84
2021/05/10 09:14:50;;;;;;;;;;;16.70;99.90;;;;;;10417992;28;19932;-84
2021/05/10 09:19:57;;;;;;;;;;;16.20;99.90;;;;;;10416702;28;20384;-84
2021/05/10 09:24:58;;;;;;;;;;;15.90;99.90;;;;;;10406828;28;20012;-83
2021/05/10 09:30:13;;;;;;;;;;;15.90;99.90;;;;;;10405526;28;20300;-84
2021/05/10 09:35:16;;;;;;;;;;;16.10;99.90;;;;;;10423412;28;19979;-84
2021/05/10 09:40:18;;;;;;;;;;;16.40;99.90;;;;;;10388579;28;19926;-86
2021/05/10 09:45:47;;;;;;;;;;;16.30;99.90;;;;;;10385866;28;19925;-84
2021/05/10 09:50:53;;;;;;;;;;;16.30;99.90;;;;;;10422140;28;19925;-84
2021/05/10 09:55:55;;;;;;;;;;;16.50;99.90;;;;;;10421138;28;19932;-84
2021/05/10 10:00:57;;;;;;;;;;;16.60;99.90;;;;;;10404094;28;19965;-85
2021/05/10 10:06:01;;;;;;;;;;;16.70;99.90;;;;;;10422222;28;19979;-85
2021/05/10 10:11:04;;;;;;;;;;;16.50;99.90;;;;;;10441514;28;19929;-85
2021/05/10 10:16:09;;;;;;;;;;;16.30;99.90;;;;;;10433013;28;20418;-85
2021/05/10 10:21:13;;;;;;;;;;;16.20;99.90;;;;;;10421684;28;19929;-88
2021/05/10 10:26:16;;;;;;;;;;;16.30;99.90;;;;;;10403401;28;20352;-88
2021/05/10 10:31:23;;;;;;;;;;;16.20;99.90;;;;;;10376959;28;19925;-86
2021/05/10 10:36:28;;;;;;;;;;;16.60;99.90;;;;;;10379834;28;19933;-87
2021/05/10 10:41:29;;;;;;;;;;;16.80;99.90;;;;;;10379470;28;20027;-85
2021/05/10 10:46:31;;;;;;;;;;;16.60;99.90;;;;;;10345047;28;19929;-88
2021/05/10 10:51:49;;;;;;;;;;;16.80;99.90;;;;;;10363172;28;19934;-86
2021/05/10 10:56:54;;;;;;;;;;;17.40;99.90;;;;;;10378225;28;19926;-86
2021/05/10 11:01:57;;;;;;;;;;;17.40;99.90;;;;;;10380101;28;19926;-86
2021/05/10 11:06:59;;;;;;;;;;;17.50;99.90;;;;;;10378634;28;20805;-86
2021/05/10 11:12:00;;;;;;;;;;;17.40;99.90;;;;;;10345503;28;19931;-86
2021/05/10 11:17:01;;;;;;;;;;;17.90;99.90;;;;;;10378189;28;19932;-86
2021/05/10 11:22:23;;;;;;;;;;;17.50;99.90;;;;;;10361157;28;19991;-86
2021/05/10 11:27:30;;;;;;;;;;;17.10;99.90;;;;;;10360894;28;19925;-86
2021/05/10 11:32:33;;;;;;;;;;;17.60;99.90;;;;;;10372911;28;20425;-86
2021/05/10 11:37:35;;;;;;;;;;;17.60;99.90;;;;;;10384199;28;20406;-85
2021/05/10 11:42:36;;;;;;;;;;;17.40;99.90;;;;;;10385035;28;19960;-86
2021/05/10 11:47:45;;;;;;;;;;;17.60;99.90;;;;;;10400575;28;19947;-86
2021/05/10 11:52:47;;;;;;;;;;;17.60;99.90;;;;;;10375094;28;19931;-88
2021/05/10 11:57:55;;;;;;;;;;;17.40;99.90;;;;;;10343078;28;20015;-86
2021/05/10 12:02:56;;;;;;;;;;;17.10;99.90;;;;;;10332906;28;19933;-86
2021/05/10 12:07:58;;;;;;;;;;;17.20;99.90;;;;;;10312859;23;19926;-87
2021/05/10 12:12:59;;;;;;;;;;;17.40;99.90;;;;;;10353905;28;19929;-87
2021/05/10 12:18:01;;;;;;;;;;;17.70;99.90;;;;;;10358428;28;19931;-87
2021/05/10 12:23:05;;;;;;;;;;;17.50;99.90;;;;;;10375375;28;20265;-87
2021/05/10 12:28:12;;;;;;;;;;;18.40;99.90;;;;;;10358094;28;19987;-88
2021/05/10 12:33:15;;;;;;;;;;;18.00;99.90;;;;;;10375557;28;19926;-88
2021/05/10 12:38:26;;;;;;;;;;;17.90;99.90;;;;;;10344941;28;19932;-89
2021/05/10 12:43:29;;;;;;;;;;;18.70;99.90;;;;;;10357771;28;19931;-90
2021/05/10 12:48:36;;;;;;;;;;;19.30;99.90;;;;;;10358558;28;19968;-89
2021/05/10 12:53:39;;;;;;;;;;;19.70;99.70;;;;;;10374068;28;19957;-89
2021/05/10 12:58:42;;;;;;;;;;;19.80;98.30;;;;;;10357778;28;19941;-89
2021/05/10 13:03:46;;;;;;;;;;;19.60;98.40;;;;;;10357118;28;20356;-87
2021/05/10 13:08:49;;;;;;;;;;;19.20;98.30;;;;;;10375128;28;19934;-89
2021/05/10 13:13:56;;;;;;;;;;;19.50;99.70;;;;;;10349864;28;19936;-89
2021/05/10 13:19:55;;;;;;;;;;;19.20;98.70;;;;;;10351685;28;19965;-91
2021/05/10 13:35:34;;;;;;;;;;;19.40;98.80;;;;;;10359410;28;20008;-88
2021/05/10 13:40:35;;;;;;;;;;;19.60;99.00;;;;;;10356521;28;19932;-88
2021/05/10 13:45:37;;;;;;;;;;;19.20;99.90;;;;;;10313643;28;20008;-87
2021/05/10 13:50:39;;;;;;;;;;;18.90;99.10;;;;;;10357341;28;19932;-87
2021/05/10 13:55:40;;;;;;;;;;;18.70;99.20;;;;;;10341010;28;19975;-88
2021/05/10 14:00:41;;;;;;;;;;;19.40;98.80;;;;;;10358031;28;19930;-88
2021/05/10 14:05:43;;;;;;;;;;;19.90;96.40;;;;;;10348594;28;19925;-87
2021/05/10 14:10:44;;;;;;;;;;;20.60;94.00;;;;;;10382320;28;19925;-90
2021/05/10 14:15:45;;;;;;;;;;;20.70;92.50;;;;;;10324350;28;19964;-88
2021/05/10 14:26:07;;;;;;;;;;;20.80;90.90;;;;;;10339984;28;19926;-89
2021/05/10 14:31:09;;;;;;;;;;;20.10;92.60;;;;;;10377504;28;19925;-89
2021/05/10 14:36:11;;;;;;;;;;;20.40;91.40;;;;;;10334673;28;19973;-88
2021/05/10 14:41:13;;;;;;;;;;;20.30;91.30;;;;;;10322053;28;20388;-90
2021/05/10 14:46:14;;;;;;;;;;;20.60;92.40;;;;;;10332470;28;20300;-89
2021/05/10 14:51:15;;;;;;;;;;;20.90;87.90;;;;;;10362621;28;20388;-89
2021/05/10 14:56:17;;;;;;;;;;;19.90;89.20;;;;;;10379286;28;19932;-89
2021/05/10 15:01:19;;;;;;;;;;;19.90;91.20;;;;;;10379855;28;20352;-88
2021/05/10 15:06:20;;;;;;;;;;;20.90;89.50;;;;;;10361325;28;19933;-88
2021/05/10 15:11:22;;;;;;;;;;;20.40;89.30;;;;;;10361735;28;19932;-89
2021/05/10 15:16:27;;;;;;;;;;;21.10;88.30;;;;;;10377395;28;19926;-88
2021/05/10 15:21:29;;;;;;;;;;;21.40;78.20;;;;;;10360879;28;19925;-87
2021/05/10 15:26:30;;;;;;;;;;;21.30;81.60;;;;;;10346497;28;19925;-87
2021/05/10 15:31:33;;;;;;;;;;;20.50;87.50;;;;;;10337826;28;19933;-88
2021/05/10 15:36:34;;;;;;;;;;;21.50;90.60;;;;;;10320516;28;19934;-88
2021/05/10 15:41:35;;;;;;;;;;;21.70;87.00;;;;;;10304624;28;19934;-88
2021/05/10 15:46:37;;;;;;;;;;;21.70;85.20;;;;;;10337264;28;19925;-88
2021/05/10 15:51:38;;;;;;;;;;;21.90;84.90;;;;;;10370635;28;20351;-90
2021/05/10 15:56:41;;;;;;;;;;;22.40;70.80;;;;;;10377071;28;19932;-91
2021/05/10 16:01:42;;;;;;;;;;;21.90;77.20;;;;;;10360239;28;19929;-89
2021/05/10 16:06:45;;;;;;;;;;;22.20;68.30;;;;;;10374571;28;19980;-89
2021/05/10 16:11:46;;;;;;;;;;;22.20;69.50;;;;;;10374624;28;19925;-91
2021/05/10 16:16:49;;;;;;;;;;;21.90;68.80;;;;;;10359321;28;19936;-90
2021/05/10 16:21:52;;;;;;;;;;;21.70;65.90;;;;;;10343057;28;21601;-91
2021/05/10 16:26:53;;;;;;;;;;;21.90;64.70;;;;;;10342752;28;19926;-90
2021/05/10 16:31:55;;;;;;;;;;;21.30;67.20;;;;;;10359086;28;19941;-91
2021/05/10 16:36:57;;;;;;;;;;;21.20;67.40;;;;;;10359223;28;19925;-90
2021/05/10 16:41:58;;;;;;;;;;;21.40;67.60;;;;;;10375312;28;20004;-91
2021/05/10 16:46:59;;;;;;;;;;;21.30;63.20;;;;;;10358632;28;19981;-89
2021/05/10 16:52:01;;;;;;;;;;;21.10;65.80;;;;;;10373538;28;19932;-91
2021/05/10 16:57:03;;;;;;;;;;;20.90;66.30;;;;;;10324222;28;19972;-91
2021/05/10 17:02:04;;;;;;;;;;;20.90;67.20;;;;;;10352128;28;19935;-90
2021/05/10 17:07:06;;;;;;;;;;;20.90;68.10;;;;;;10357848;28;19926;-91
2021/05/10 17:12:07;;;;;;;;;;;20.60;67.90;;;;;;10373740;28;19932;-91
2021/05/10 17:17:09;;;;;;;;;;;20.50;65.30;;;;;;10358137;28;19925;-91
2021/05/10 17:22:10;;;;;;;;;;;20.50;72.30;;;;;;10357529;28;20399;-91
2021/05/10 17:27:12;;;;;;;;;;;20.20;73.60;;;;;;10374796;28;19932;-91
2021/05/10 17:32:13;;;;;;;;;;;20.10;70.90;;;;;;10357450;28;20281;-91
2021/05/10 17:37:17;;;;;;;;;;;20.10;71.00;;;;;;10346266;28;20419;-91
2021/05/10 17:42:18;;;;;;;;;;;20.00;69.80;;;;;;10365630;28;20331;-91
2021/05/10 17:47:21;;;;;;;;;;;19.80;76.10;;;;;;10382757;28;19926;-90
2021/05/10 17:52:22;;;;;;;;;;;19.70;80.10;;;;;;10365393;28;19933;-89
2021/05/10 17:57:26;;;;;;;;;;;19.40;79.40;;;;;;10365255;28;19929;-90
2021/05/10 18:07:47;;;;;;;;;;;19.40;81.20;;;;;;10381527;28;19925;-90
2021/05/10 18:12:48;;;;;;;;;;;19.20;90.00;;;;;;10348390;28;19925;-90
2021/05/10 18:17:51;;;;;;;;;;;19.30;80.20;;;;;;10362606;28;19925;-90
2021/05/10 18:22:52;;;;;;;;;;;19.00;84.60;;;;;;10363428;28;20292;-90
2021/05/10 18:27:54;;;;;;;;;;;18.90;87.20;;;;;;10363137;28;20024;-90
2021/05/10 18:32:55;;;;;;;;;;;18.70;93.10;;;;;;10363512;28;19925;-90
2021/05/10 18:37:56;;;;;;;;;;;18.60;94.10;;;;;;10363377;28;19958;-90
2021/05/10 18:42:58;;;;;;;;;;;18.50;95.80;;;;;;10370008;28;19925;-90
2021/05/10 18:48:03;;;;;;;;;;;18.30;96.30;;;;;;10344107;28;19932;-90
2021/05/10 18:53:05;;;;;;;;;;;18.00;98.10;;;;;;10378368;28;20024;-90
2021/05/10 18:58:10;;;;;;;;;;;17.90;97.90;;;;;;10378812;28;20399;-90
2021/05/10 19:03:11;;;;;;;;;;;17.70;98.40;;;;;;10378863;28;20368;-90
2021/05/10 19:08:13;;;;;;;;;;;17.40;99.50;;;;;;10361883;28;20024;-90
2021/05/10 19:13:15;;;;;;;;;;;17.30;99.60;;;;;;10378439;28;19932;-90
2021/05/10 19:18:17;;;;;;;;;;;17.20;99.90;;;;;;10362073;28;19972;-89
2021/05/10 19:23:19;;;;;;;;;;;17.00;99.90;;;;;;10379599;28;19929;-90
2021/05/10 19:28:21;;;;;;;;;;;17.00;99.90;;;;;;10378284;28;19925;-90
2021/05/10 19:33:22;;;;;;;;;;;16.90;99.90;;;;;;10343920;28;20396;-90
2021/05/10 19:38:24;;;;;;;;;;;16.70;99.90;;;;;;10360865;28;19956;-90
2021/05/10 19:43:25;;;;;;;;;;;16.50;99.90;;;;;;10359832;28;19925;-90
2021/05/10 19:48:35;;;;;;;;;;;16.30;99.90;;;;;;10345080;28;19926;-90
2021/05/10 20:04:09;;;;;;;;;;;16.40;99.90;;;;;;10359666;28;19936;-90
2021/05/10 20:09:11;;;;;;;;;;;16.40;99.90;;;;;;10319019;28;19926;-90
2021/05/10 20:14:12;;;;;;;;;;;16.40;99.90;;;;;;10302616;28;20378;-90
2021/05/10 20:19:14;;;;;;;;;;;16.10;99.90;;;;;;10336533;28;19930;-90
2021/05/10 20:24:15;;;;;;;;;;;16.00;99.90;;;;;;10336146;28;19926;-90
2021/05/10 20:29:16;;;;;;;;;;;15.90;99.90;;;;;;10318882;28;19926;-90
2021/05/10 20:34:19;;;;;;;;;;;15.90;99.90;;;;;;10335876;28;19926;-90
2021/05/10 20:39:20;;;;;;;;;;;15.90;99.90;;;;;;10318969;28;19933;-90
2021/05/10 20:44:22;;;;;;;;;;;15.90;99.90;;;;;;10316939;28;20450;-90
2021/05/10 20:49:24;;;;;;;;;;;15.90;99.90;;;;;;10335247;28;19929;-90
2021/05/10 20:54:25;;;;;;;;;;;15.80;99.90;;;;;;10334674;28;20258;-90
2021/05/10 20:59:27;;;;;;;;;;;15.70;99.90;;;;;;10334607;28;19926;-90
2021/05/10 21:04:28;;;;;;;;;;;15.60;99.90;;;;;;10362097;28;19926;-90
2021/05/10 21:09:29;;;;;;;;;;;15.60;99.90;;;;;;10360101;28;19925;-90
2021/05/10 21:14:31;;;;;;;;;;;15.60;99.90;;;;;;10331480;28;19933;-90
2021/05/10 21:19:32;;;;;;;;;;;15.60;99.90;;;;;;10314899;28;19933;-91
2021/05/10 21:24:34;;;;;;;;;;;15.60;99.90;;;;;;10348105;28;19934;-91
2021/05/10 21:29:35;;;;;;;;;;;15.50;99.90;;;;;;10330245;28;19932;-90
2021/05/10 21:34:37;;;;;;;;;;;15.50;99.90;;;;;;10347932;28;19932;-90
2021/05/10 21:39:38;;;;;;;;;;;15.50;99.90;;;;;;10334760;28;19925;-90
2021/05/10 21:44:40;;;;;;;;;;;15.30;99.90;;;;;;10377816;28;19929;-90
2021/05/10 21:49:41;;;;;;;;;;;15.30;99.90;;;;;;10354994;28;19932;-91
2021/05/10 21:54:43;;;;;;;;;;;15.20;99.90;;;;;;10360477;28;19926;-91
2021/05/10 21:59:44;;;;;;;;;;;15.10;99.90;;;;;;10313657;28;19992;-90
2021/05/10 22:04:45;;;;;;;;;;;15.10;99.90;;;;;;10314248;28;19932;-90
2021/05/10 22:09:47;;;;;;;;;;;15.10;99.90;;;;;;10333072;28;19933;-90
2021/05/10 22:14:51;;;;;;;;;;;15.10;99.90;;;;;;10354263;28;19926;-90
2021/05/10 22:19:52;;;;;;;;;;;15.00;99.90;;;;;;10387252;28;19932;-90
2021/05/10 22:25:01;;;;;;;;;;;14.90;99.90;;;;;;10362624;28;19929;-90
2021/05/10 22:30:03;;;;;;;;;;;14.80;99.90;;;;;;10364904;28;19925;-90
2021/05/10 22:35:04;;;;;;;;;;;14.80;99.90;;;;;;10380258;28;19930;-90
2021/05/10 22:40:10;;;;;;;;;;;14.70;99.90;;;;;;10380828;28;19925;-90
2021/05/10 22:50:31;;;;;;;;;;;14.60;99.90;;;;;;10363961;28;19932;-90
2021/05/10 23:16:28;;;;;;;;;;;14.60;99.90;;;;;;10337775;28;19930;-90
2021/05/10 23:21:37;;;;;;;;;;;14.60;99.90;;;;;;10364121;23;19925;-88
2021/05/10 23:26:38;;;;;;;;;;;14.50;99.90;;;;;;10386882;28;19925;-88
2021/05/10 23:31:39;;;;;;;;;;;14.50;99.90;;;;;;10400101;28;19929;-88
2021/05/10 23:36:41;;;;;;;;;;;14.60;99.90;;;;;;10382829;28;20016;-88
2021/05/10 23:41:44;;;;;;;;;;;14.30;99.90;;;;;;10365184;28;19933;-88
2021/05/10 23:46:45;;;;;;;;;;;14.20;99.90;;;;;;10350755;28;19928;-88
2021/05/10 23:51:47;;;;;;;;;;;14.20;99.90;;;;;;10397156;28;20379;-88
2021/05/10 23:56:48;;;;;;;;;;;14.10;99.90;;;;;;10415710;28;19954;-88
